Time;durP1;ratioP1;P1;durP2;ratioP2;P2;SDS_P1;SDS_P2;PMS_P1;PMS_P2;Temp;Humidity;BMP_temperature;BMP_pressure;BME280_temperature;BME280_humidity;BME280_pressure;Samples;Min_cycle;Max_cycle;Signal;HPM_P1;HPM_P2
2022/06/02 00:03:08;;;;;;;1.48;1.08;;;;;;;19.69;50.11;96826.19;10154678;29;20056;-83
2022/06/02 00:08:30;;;;;;;1.25;1.00;;;;;;;19.69;50.06;96835.06;10171074;29;20562;-83
2022/06/02 00:13:58;;;;;;;1.17;0.93;;;;;;;19.68;50.05;96821.88;10169511;29;20055;-83
2022/06/02 00:19:29;;;;;;;1.10;1.00;;;;;;;19.67;50.06;96831.13;10183998;29;20052;-83
2022/06/02 00:25:00;;;;;;;1.00;1.00;;;;;;;19.67;50.11;96823.78;10172291;29;20506;-83
2022/06/02 00:30:23;;;;;;;1.23;1.10;;;;;;;19.67;50.16;96834.59;10182138;29;20392;-83
2022/06/02 00:35:53;;;;;;;1.30;1.02;;;;;;;19.67;50.13;96828.41;10183019;29;20056;-82
2022/06/02 00:41:38;;;;;;;1.50;1.10;;;;;;;19.66;50.13;96841.16;10184975;29;20120;-83
2022/06/02 00:47:04;;;;;;;0.82;0.82;;;;;;;19.66;50.37;96849.25;10179745;29;20051;-84
2022/06/02 00:52:39;;;;;;;1.10;1.00;;;;;;;19.67;50.01;96852.75;10170257;29;20060;-83
2022/06/02 00:58:05;;;;;;;1.20;1.10;;;;;;;19.67;50.19;96844.63;10158832;29;20058;-83
2022/06/02 01:03:43;;;;;;;0.90;0.90;;;;;;;19.66;50.02;96843.03;10169523;29;20063;-83
2022/06/02 01:09:23;;;;;;;1.47;1.13;;;;;;;19.65;50.25;96857.69;10167897;29;20505;-83
2022/06/02 01:15:21;;;;;;;0.73;0.73;;;;;;;19.65;50.26;96866.56;10188721;29;20052;-83
2022/06/02 01:21:13;;;;;;;1.30;1.00;;;;;;;19.66;50.13;96872.75;10154178;29;20056;-83
2022/06/02 01:27:04;;;;;;;1.15;0.88;;;;;;;19.65;50.17;96882.00;10189354;29;20052;-83
2022/06/02 01:32:36;;;;;;;1.20;1.00;;;;;;;19.65;50.29;96887.41;10192062;29;20111;-82
2022/06/02 01:38:09;;;;;;;1.13;1.00;;;;;;;19.64;50.15;96893.91;10168002;29;20044;-83
2022/06/02 01:43:39;;;;;;;0.80;0.80;;;;;;;19.63;50.10;96884.22;10191824;29;20052;-83
2022/06/02 01:49:12;;;;;;;0.80;0.80;;;;;;;19.64;50.33;96891.22;10190027;29;20488;-83
2022/06/02 01:54:43;;;;;;;1.55;0.90;;;;;;;19.63;50.24;96900.44;10179109;29;20055;-83
2022/06/02 02:00:09;;;;;;;1.00;0.90;;;;;;;19.62;50.17;96898.84;10195022;29;20060;-83
2022/06/02 02:05:41;;;;;;;;;;;;;;;19.61;50.28;96908.09;10196569;29;20056;-83
2022/06/02 02:11:06;;;;;;;1.00;0.90;;;;;;;19.61;50.14;96918.91;10190036;29;19938;-83
2022/06/02 02:16:26;;;;;;;1.30;1.00;;;;;;;19.61;50.17;96924.31;10161576;29;20060;-83
2022/06/02 02:21:54;;;;;;;0.98;0.98;;;;;;;19.61;50.05;96935.09;10171483;29;20056;-83
2022/06/02 02:28:04;;;;;;;0.70;0.70;;;;;;;19.60;50.22;96939.72;10161775;29;20644;-83
2022/06/02 02:33:44;;;;;;;0.80;0.80;;;;;;;19.60;50.19;96953.25;10173223;29;20090;-83
2022/06/02 02:39:13;;;;;;;0.98;0.88;;;;;;;19.58;50.33;96960.84;10180101;29;20060;-83
2022/06/02 02:44:36;;;;;;;;;;;;;;;19.59;50.28;96964.38;10150016;29;20439;-83
2022/06/02 02:50:24;;;;;;;0.85;0.80;;;;;;;19.59;50.12;96964.38;10174826;29;19923;-84
2022/06/02 02:56:29;;;;;;;1.00;0.90;;;;;;;19.58;50.21;96977.06;10180899;29;20056;-83
2022/06/02 03:02:06;;;;;;;1.13;0.95;;;;;;;19.57;50.11;96978.19;10178741;29;20048;-83
2022/06/02 03:07:25;;;;;;;0.73;0.73;;;;;;;19.58;50.21;96978.97;10190943;29;20052;-83
2022/06/02 03:13:18;;;;;;;1.00;0.90;;;;;;;19.56;50.24;96988.22;10188089;29;20111;-83
2022/06/02 03:18:47;;;;;;;0.93;0.73;;;;;;;19.56;50.18;96980.09;10147171;29;20060;-83
2022/06/02 03:24:46;;;;;;;0.85;0.77;;;;;;;19.56;50.29;96996.31;10180473;29;20183;-83
2022/06/02 03:30:09;;;;;;;1.23;0.90;;;;;;;19.55;50.19;96997.41;10160147;29;20060;-83
2022/06/02 03:35:51;;;;;;;0.85;0.80;;;;;;;19.55;50.37;97002.03;10187654;29;20052;-83
2022/06/02 03:41:35;;;;;;;1.15;0.90;;;;;;;19.56;50.17;97003.59;10170481;29;20060;-83
2022/06/02 03:47:28;;;;;;;0.80;0.80;;;;;;;19.54;50.33;96998.56;10162382;29;20104;-83
2022/06/02 03:53:08;;;;;;;1.30;0.80;;;;;;;19.54;50.19;97009.34;10151881;29;20060;-83
2022/06/02 03:58:50;;;;;;;0.60;0.60;;;;;;;19.56;50.22;97011.72;10173994;29;20519;-83
2022/06/02 04:04:34;;;;;;;0.88;0.88;;;;;;;19.56;50.14;97011.72;10190913;29;20127;-83
2022/06/02 04:10:06;;;;;;;0.70;0.70;;;;;;;19.55;50.10;97029.84;10176656;29;20056;-83
2022/06/02 04:15:34;;;;;;;0.77;0.70;;;;;;;19.55;50.14;97029.84;10163824;29;20488;-83
2022/06/02 04:21:15;;;;;;;0.60;0.60;;;;;;;19.58;50.24;97030.31;10191443;29;20071;-82
2022/06/02 04:26:42;;;;;;;0.90;0.90;;;;;;;19.59;50.14;97035.41;10196498;29;20040;-82
2022/06/02 04:32:29;;;;;;;0.70;0.70;;;;;;;19.62;50.25;97044.78;10183331;29;20115;-83
2022/06/02 04:38:26;;;;;;;1.15;0.90;;;;;;;19.65;49.84;97044.16;10186562;29;20115;-83
2022/06/02 04:44:09;;;;;;;1.00;0.90;;;;;;;19.66;50.02;97048.44;10178323;29;20052;-83
2022/06/02 04:49:54;;;;;;;2.33;0.93;;;;;;;19.65;50.02;97050.34;10171495;29;20155;-82
2022/06/02 04:55:21;;;;;;;1.05;0.90;;;;;;;19.66;49.50;97054.66;10175570;29;20055;-83
2022/06/02 05:01:05;;;;;;;1.00;0.90;;;;;;;19.66;49.39;97059.25;10189975;29;20416;-83
2022/06/02 05:06:44;;;;;;;2.63;0.98;;;;;;;19.65;49.33;97068.47;10171374;29;20063;-83
2022/06/02 05:12:23;;;;;;;3.92;1.00;;;;;;;19.64;49.72;97080.41;10177623;29;20063;-83
2022/06/02 05:17:45;;;;;;;2.90;1.20;;;;;;;19.63;49.23;97092.34;10163806;29;20048;-83
2022/06/02 05:23:21;;;;;;;2.50;1.10;;;;;;;19.62;49.20;97102.34;10189618;29;20171;-84
2022/06/02 05:28:51;;;;;;;4.55;1.30;;;;;;;19.62;48.99;97106.94;10163974;29;20048;-84
2022/06/02 05:34:33;;;;;;;3.22;0.98;;;;;;;19.61;48.82;97108.06;10192633;29;20055;-84
2022/06/02 05:39:56;;;;;;;2.58;0.95;;;;;;;19.59;48.96;97111.09;10175683;29;20058;-84
2022/06/02 05:45:37;;;;;;;19.10;4.65;;;;;;;19.58;48.84;97117.59;10170544;29;20051;-84
2022/06/02 05:51:23;;;;;;;19.98;4.57;;;;;;;19.58;48.92;97116.78;10181461;29;20040;-84
2022/06/02 05:57:08;;;;;;;19.60;5.40;;;;;;;19.57;49.13;97118.72;10173742;29;20055;-84
2022/06/02 06:02:45;;;;;;;17.40;4.82;;;;;;;19.59;49.20;97121.09;10169865;29;20059;-84
2022/06/02 06:08:04;;;;;;;19.50;5.50;;;;;;;19.58;49.29;97123.00;10171497;29;20098;-84
2022/06/02 06:13:49;;;;;;;16.20;4.78;;;;;;;19.58;49.31;97124.91;10171514;29;20052;-84
2022/06/02 06:19:16;;;;;;;18.02;4.93;;;;;;;19.58;49.50;97131.09;10166638;29;20063;-84
2022/06/02 06:24:55;;;;;;;17.83;5.28;;;;;;;19.59;49.45;97145.44;10174327;29;20119;-84
2022/06/02 06:30:27;;;;;;;16.00;5.28;;;;;;;19.58;49.50;97130.31;10178123;29;20052;-84
2022/06/02 06:35:50;;;;;;;16.65;5.47;;;;;;;19.58;49.61;97130.31;10178584;29;20099;-84
2022/06/02 06:41:18;;;;;;;16.05;4.50;;;;;;;19.58;49.68;97143.81;10174708;29;20096;-84
2022/06/02 06:46:48;;;;;;;20.13;5.13;;;;;;;19.56;49.70;97138.72;10175541;29;20075;-84
2022/06/02 06:52:44;;;;;;;13.73;4.70;;;;;;;19.56;49.74;97153.06;10197712;29;20304;-84
2022/06/02 06:58:31;;;;;;;12.00;4.40;;;;;;;19.56;49.79;97150.34;10173198;29;20059;-84
2022/06/02 07:04:15;;;;;;;11.90;4.45;;;;;;;19.55;49.86;97156.84;10172119;29;20115;-84
2022/06/02 07:09:44;;;;;;;14.00;4.28;;;;;;;19.56;49.97;97161.16;10172742;29;20070;-84
2022/06/02 07:15:06;;;;;;;14.48;4.70;;;;;;;19.55;49.98;97154.16;10168166;29;20048;-84
2022/06/02 07:20:32;;;;;;;11.15;4.47;;;;;;;19.55;50.08;97156.84;10172617;29;20460;-84
2022/06/02 07:26:03;;;;;;;13.82;4.50;;;;;;;19.56;50.04;97153.06;10184452;29;20059;-84
2022/06/02 07:31:44;;;;;;;14.52;4.63;;;;;;;19.56;50.24;97157.66;10153270;29;20067;-83
2022/06/02 07:37:28;;;;;;;11.82;4.43;;;;;;;19.55;50.26;97156.84;10158633;29;20056;-84
2022/06/02 07:43:03;;;;;;;11.82;4.63;;;;;;;19.55;50.20;97153.38;10171631;29;20056;-84
2022/06/02 07:48:51;;;;;;;12.90;4.43;;;;;;;19.55;50.36;97159.56;10171337;29;20063;-84
2022/06/02 07:54:23;;;;;;;14.05;4.97;;;;;;;19.56;50.47;97165.75;10184844;29;20479;-84
2022/06/02 08:00:07;;;;;;;11.60;4.45;;;;;;;19.55;50.72;97164.97;10170579;29;20056;-84
2022/06/02 08:05:51;;;;;;;10.57;4.35;;;;;;;19.56;50.74;97163.03;10184215;29;20519;-84
2022/06/02 08:11:16;;;;;;;11.57;3.85;;;;;;;19.56;50.74;97163.03;10171137;29;20052;-84
2022/06/02 08:17:00;;;;;;;8.82;3.88;;;;;;;19.55;50.94;97170.38;10162327;29;20075;-84
2022/06/02 08:22:34;;;;;;;11.68;4.18;;;;;;;19.55;50.90;97178.47;10157133;29;20055;-83
2022/06/02 08:28:16;;;;;;;8.40;3.78;;;;;;;19.54;50.79;97192.28;10152980;29;20431;-84
2022/06/02 08:33:50;;;;;;;8.55;3.88;;;;;;;19.56;50.72;97192.78;10169957;29;20672;-84
2022/06/02 08:40:00;;;;;;;7.80;3.88;;;;;;;19.54;50.85;97195.81;10157164;29;20071;-84
2022/06/02 08:45:23;;;;;;;9.75;3.40;;;;;;;19.55;50.76;97202.00;10141892;29;20060;-84
2022/06/02 08:50:42;;;;;;;8.50;3.72;;;;;;;19.55;50.91;97207.41;10169097;29;20044;-84
2022/06/02 08:56:39;;;;;;;7.68;3.40;;;;;;;19.54;50.97;97214.72;10156574;29;20086;-84
2022/06/02 09:02:05;;;;;;;7.55;3.70;;;;;;;19.55;50.83;97212.81;10169756;29;20072;-84
2022/06/02 09:07:48;;;;;;;8.95;3.63;;;;;;;19.54;50.88;97217.44;10169376;29;20464;-84
2022/06/02 09:13:17;;;;;;;9.23;3.70;;;;;;;19.55;50.74;97212.81;10169431;29;20427;-84
2022/06/02 09:19:29;;;;;;;7.90;3.53;;;;;;;19.55;50.88;97207.41;10156639;29;20480;-84
2022/06/02 09:25:28;;;;;;;6.55;3.05;;;;;;;19.53;51.00;97210.44;10119210;29;20056;-84
2022/06/02 09:31:09;;;;;;;7.70;2.95;;;;;;;19.55;51.01;97212.81;10147410;29;20060;-84
2022/06/02 09:36:44;;;;;;;8.00;3.70;;;;;;;19.54;50.95;97213.91;10176401;29;20066;-84
2022/06/02 09:42:12;;;;;;;7.47;3.22;;;;;;;19.54;51.01;97217.44;10190190;29;20115;-84
2022/06/02 09:48:01;;;;;;;7.32;3.25;;;;;;;19.55;51.10;97223.63;10175921;29;20071;-84
2022/06/02 09:53:48;;;;;;;5.43;3.20;;;;;;;19.54;50.97;97222.84;10161828;29;20703;-84
2022/06/02 09:59:26;;;;;;;6.70;3.25;;;;;;;19.55;51.25;97231.72;10191510;29;20051;-84
2022/06/02 10:04:46;;;;;;;8.07;3.13;;;;;;;19.54;50.99;97227.44;10162237;29;20439;-84
2022/06/02 10:10:26;;;;;;;5.70;2.60;;;;;;;19.54;51.00;97230.13;10175084;29;20467;-84
2022/06/02 10:16:03;;;;;;;5.80;2.97;;;;;;;19.54;51.00;97230.94;10168767;29;20044;-84
2022/06/02 10:21:48;;;;;;;6.80;3.00;;;;;;;19.54;51.03;97228.25;10160564;29;20048;-84
2022/06/02 10:27:32;;;;;;;7.57;3.28;;;;;;;19.54;51.06;97224.72;10194092;29;20483;-83
2022/06/02 10:33:10;;;;;;;5.28;2.80;;;;;;;19.55;51.09;97220.94;10186268;29;20078;-83
2022/06/02 10:38:45;;;;;;;6.38;2.80;;;;;;;19.55;50.91;97219.00;10166758;29;20078;-83
2022/06/02 10:44:13;;;;;;;6.68;2.80;;;;;;;19.56;50.82;97225.19;10173901;29;20085;-83
2022/06/02 10:49:53;;;;;;;5.10;2.67;;;;;;;19.54;50.98;97209.31;10173186;29;20052;-83
2022/06/02 10:55:24;;;;;;;5.05;2.70;;;;;;;19.55;50.93;97219.00;10163374;29;20485;-83
2022/06/02 11:00:59;;;;;;;4.88;2.53;;;;;;;19.54;50.96;97220.13;10190097;29;20060;-83
2022/06/02 11:06:40;;;;;;;4.93;2.60;;;;;;;19.53;51.03;97215.81;10193366;29;20059;-83
2022/06/02 11:12:28;;;;;;;4.13;2.47;;;;;;;19.53;51.23;97215.81;10181227;29;20054;-82
2022/06/02 11:18:09;;;;;;;5.05;2.60;;;;;;;19.53;51.05;97213.13;10174356;29;20099;-83
2022/06/02 11:23:38;;;;;;;5.05;2.40;;;;;;;19.53;50.89;97210.44;10187608;29;20056;-82
2022/06/02 11:29:35;;;;;;;4.03;2.30;;;;;;;19.54;51.07;97201.22;10173271;29;20067;-83
2022/06/02 11:35:11;;;;;;;5.32;2.53;;;;;;;19.53;51.05;97205.03;10176446;29;20060;-83
2022/06/02 11:40:56;;;;;;;6.95;2.63;;;;;;;19.55;51.13;97210.13;10190507;29;20044;-83
2022/06/02 11:46:44;;;;;;;4.22;2.30;;;;;;;19.54;51.06;97195.00;10166750;29;20055;-83
2022/06/02 11:52:12;;;;;;;3.65;2.13;;;;;;;19.53;51.14;97191.50;10178008;29;20096;-83
2022/06/02 11:57:49;;;;;;;4.88;2.40;;;;;;;19.54;51.08;97189.59;10196953;29;20051;-82
2022/06/02 12:03:43;;;;;;;3.85;2.25;;;;;;;19.54;51.13;97189.59;10169072;29;20056;-83
2022/06/02 12:09:12;;;;;;;3.60;1.88;;;;;;;19.54;51.09;97185.00;10153435;29;20056;-83
2022/06/02 12:15:09;;;;;;;3.38;2.08;;;;;;;19.54;51.16;97192.28;10166767;29;20044;-83
2022/06/02 12:20:55;;;;;;;4.00;2.20;;;;;;;19.54;51.17;97190.41;10176564;29;20055;-83
2022/06/02 12:26:33;;;;;;;4.40;2.20;;;;;;;19.54;51.19;97195.00;10192341;29;20055;-83
2022/06/02 12:32:04;;;;;;;4.55;2.40;;;;;;;19.53;51.23;97191.50;10174762;29;20492;-83
2022/06/02 12:37:53;;;;;;;3.72;2.30;;;;;;;19.54;51.12;97187.72;10167754;29;20099;-83
2022/06/02 12:43:19;;;;;;;3.17;1.77;;;;;;;19.54;51.29;97187.72;10113257;29;20488;-83
2022/06/02 12:49:23;;;;;;;3.55;2.00;;;;;;;19.54;51.38;97186.88;10177744;29;20056;-83
2022/06/02 12:54:48;;;;;;;3.53;2.08;;;;;;;19.54;51.28;97201.22;10173373;29;20052;-83
2022/06/02 13:00:45;;;;;;;3.55;2.20;;;;;;;19.53;51.40;97199.63;10183317;29;20056;-83
2022/06/02 13:06:20;;;;;;;3.70;1.92;;;;;;;19.54;51.28;97193.13;10181799;29;20056;-83
2022/06/02 13:12:35;;;;;;;4.03;2.05;;;;;;;19.54;51.34;97190.41;10185628;29;20492;-83
2022/06/02 13:18:17;;;;;;;3.17;1.83;;;;;;;19.55;51.31;97196.59;10124255;29;1250332;-83
2022/06/02 13:24:02;;;;;;;2.65;1.88;;;;;;;19.54;51.52;97195.81;10182957;29;20412;-83
2022/06/02 13:29:40;;;;;;;2.80;1.88;;;;;;;19.54;51.46;97195.81;10178589;29;20054;-83
2022/06/02 13:35:18;;;;;;;2.97;2.00;;;;;;;19.54;51.50;97190.41;10179037;29;20427;-83
2022/06/02 13:41:08;;;;;;;2.80;1.77;;;;;;;19.55;51.55;97183.09;10194811;29;20056;-83
2022/06/02 13:46:34;;;;;;;3.50;2.10;;;;;;;19.57;51.53;97180.88;10188797;29;20063;-83
2022/06/02 13:52:15;;;;;;;3.72;2.00;;;;;;;19.58;51.59;97165.44;10175226;29;20063;-84
2022/06/02 13:57:46;;;;;;;2.80;1.80;;;;;;;19.57;51.71;97167.34;10173505;29;20075;-83
2022/06/02 14:03:50;;;;;;;3.08;1.88;;;;;;;19.57;51.64;97167.34;10165913;29;20063;-83
2022/06/02 14:09:37;;;;;;;2.85;1.88;;;;;;;19.56;51.66;97166.56;10166740;29;20056;-83
2022/06/02 14:15:12;;;;;;;3.33;1.63;;;;;;;19.56;51.69;97169.28;10183441;29;20138;-83
2022/06/02 14:20:56;;;;;;;3.83;1.90;;;;;;;19.56;51.63;97169.28;10185096;29;20131;-83
2022/06/02 14:26:20;;;;;;;4.03;1.83;;;;;;;19.58;51.70;97170.84;10183201;29;20052;-83
2022/06/02 14:31:52;;;;;;;2.08;1.55;;;;;;;19.59;51.86;97162.44;10172313;29;20059;-83
2022/06/02 14:37:18;;;;;;;2.28;1.50;;;;;;;19.59;51.75;97165.13;10174418;29;20052;-83
2022/06/02 14:48:40;;;;;;;2.75;1.63;;;;;;;19.58;51.89;97160.81;10149982;29;20520;-83
2022/06/02 14:54:20;;;;;;;2.63;1.70;;;;;;;19.58;51.79;97152.72;10155200;29;20532;-84
2022/06/02 15:00:05;;;;;;;2.92;1.90;;;;;;;19.60;51.92;97144.31;10181440;29;20060;-83
2022/06/02 15:05:42;;;;;;;3.80;1.52;;;;;;;19.61;51.86;97140.50;10159914;29;20048;-83
2022/06/02 15:11:10;;;;;;;3.05;1.77;;;;;;;19.61;51.74;97146.69;10172377;29;20053;-83
2022/06/02 15:16:51;;;;;;;2.38;1.30;;;;;;;19.61;51.92;97148.59;10164212;29;20044;-83
2022/06/02 15:22:32;;;;;;;2.42;1.42;;;;;;;19.61;51.77;97143.19;10159328;29;20063;-83
2022/06/02 15:28:04;;;;;;;2.22;1.55;;;;;;;19.61;51.82;97143.19;10161796;29;20492;-84
2022/06/02 15:33:38;;;;;;;1.52;1.25;;;;;;;19.60;51.69;97136.19;10171463;29;20393;-84
2022/06/02 15:39:36;;;;;;;2.63;1.55;;;;;;;19.60;51.86;97136.19;10185000;29;20514;-83
2022/06/02 15:45:05;;;;;;;2.58;1.50;;;;;;;19.60;51.84;97128.09;10170997;29;20416;-84
2022/06/02 15:51:03;;;;;;;3.38;1.27;;;;;;;19.61;50.10;97129.69;10176947;29;20259;-83
2022/06/02 15:56:58;;;;;;;1.48;1.20;;;;;;;19.59;46.68;97130.00;10180376;29;20055;-83
2022/06/02 16:02:42;;;;;;;1.48;1.00;;;;;;;19.60;46.88;97139.72;10171881;29;20522;-83
2022/06/02 16:08:23;;;;;;;1.52;1.10;;;;;;;19.60;45.99;97144.31;10188373;29;20437;-82
2022/06/02 16:14:17;;;;;;;0.93;0.90;;;;;;;19.59;45.00;97150.84;10172689;29;20051;-83
2022/06/02 16:19:46;;;;;;;1.77;1.20;;;;;;;19.59;45.22;97150.84;10170795;29;20055;-83
2022/06/02 16:25:20;;;;;;;3.53;1.50;;;;;;;19.60;44.73;97157.81;10184559;29;20059;-83
2022/06/02 16:30:55;;;;;;;1.13;1.00;;;;;;;19.58;44.25;97155.41;10164548;29;20108;-83
2022/06/02 16:36:40;;;;;;;1.33;1.05;;;;;;;19.59;44.34;97161.66;10182159;29;20504;-83
2022/06/02 16:42:25;;;;;;;3.03;0.88;;;;;;;19.59;44.00;97167.03;10172805;29;20052;-83
2022/06/02 16:48:12;;;;;;;2.40;0.75;;;;;;;19.58;43.59;97166.22;10156664;29;20522;-83
2022/06/02 16:54:17;;;;;;;0.95;0.80;;;;;;;19.58;42.91;97170.84;10152685;29;20082;-82
2022/06/02 16:59:47;;;;;;;0.88;0.68;;;;;;;19.56;43.04;97188.19;10148487;29;20060;-84
2022/06/02 17:05:19;;;;;;;1.00;0.73;;;;;;;19.56;42.78;97185.50;10165002;29;20053;-82
2022/06/02 17:10:48;;;;;;;1.30;0.63;;;;;;;19.56;42.91;97181.97;10156254;29;20056;-83
2022/06/02 17:16:26;;;;;;;;;;;;;;;19.56;42.33;97188.19;10148239;29;20048;-83
2022/06/02 17:22:20;;;;;;;1.50;0.60;;;;;;;19.55;42.84;97192.00;10166043;29;19923;-83
2022/06/02 17:27:55;;;;;;;0.90;0.90;;;;;;;19.56;42.61;97192.78;10148865;29;20297;-83
2022/06/02 17:33:28;;;;;;;3.45;0.90;;;;;;;19.55;42.66;97197.41;10156668;29;20052;-83
2022/06/02 17:39:00;;;;;;;1.70;0.70;;;;;;;19.53;42.69;97199.63;10159441;29;20051;-83
2022/06/02 17:44:22;;;;;;;0.70;0.70;;;;;;;19.54;43.02;97206.63;10154532;29;20124;-82
2022/06/02 17:49:52;;;;;;;3.10;0.70;;;;;;;19.53;43.11;97210.44;10168019;29;20407;-83
2022/06/02 17:55:17;;;;;;;2.47;0.70;;;;;;;19.51;43.41;97207.25;10175801;29;20052;-82
2022/06/02 18:00:55;;;;;;;1.85;0.70;;;;;;;19.51;43.29;97207.25;10174729;29;20048;-83
2022/06/02 18:06:27;;;;;;;4.15;0.80;;;;;;;19.49;43.20;97211.38;10159914;29;20045;-82
2022/06/02 18:11:59;;;;;;;0.85;0.70;;;;;;;19.46;42.96;97212.78;10174225;29;20055;-83
2022/06/02 18:17:31;;;;;;;1.92;0.75;;;;;;;19.46;42.97;97217.38;10146216;29;20044;-83
2022/06/02 18:23:07;;;;;;;0.68;0.60;;;;;;;19.44;42.98;97217.69;10169769;29;20539;-83
2022/06/02 18:28:53;;;;;;;1.13;0.50;;;;;;;19.45;43.59;97213.13;10166559;29;20059;-85
2022/06/02 18:34:40;;;;;;;3.00;0.90;;;;;;;19.46;43.97;97220.88;10169014;29;20055;-84
2022/06/02 18:40:27;;;;;;;1.90;0.70;;;;;;;19.45;44.25;97213.91;10177875;29;20056;-83
2022/06/02 18:46:18;;;;;;;4.82;1.20;;;;;;;19.45;43.98;97221.22;10177278;29;20052;-83
2022/06/02 18:52:10;;;;;;;5.82;1.15;;;;;;;19.43;44.62;97226.94;10172404;29;20461;-84
2022/06/02 18:57:49;;;;;;;6.57;2.28;;;;;;;19.45;45.40;97224.72;10174684;29;20074;-84
2022/06/02 19:03:29;;;;;;;7.18;2.33;;;;;;;19.46;46.31;97225.50;10173588;29;20052;-84
2022/06/02 19:15:19;;;;;;;5.55;2.00;;;;;;;19.50;47.15;97243.50;10172949;29;20790;-86
2022/06/02 19:20:48;;;;;;;4.18;2.00;;;;;;;19.47;47.06;97238.69;10178207;29;20484;-84
2022/06/02 19:26:16;;;;;;;5.07;1.83;;;;;;;19.46;47.16;97242.50;10177058;29;20052;-84
2022/06/02 19:31:45;;;;;;;4.82;1.75;;;;;;;19.48;47.21;97251.13;10171261;29;20660;-84
2022/06/02 19:37:25;;;;;;;4.88;1.65;;;;;;;19.47;47.35;97252.22;10184916;29;20515;-83
2022/06/02 19:42:57;;;;;;;2.72;1.70;;;;;;;19.47;47.36;97256.81;10182244;29;20071;-82
2022/06/02 19:49:03;;;;;;;3.72;1.33;;;;;;;19.46;47.54;97268.72;10178545;29;20056;-83
2022/06/02 19:54:26;;;;;;;4.45;1.50;;;;;;;19.44;47.46;97258.22;10118380;29;20060;-83
2022/06/02 19:59:55;;;;;;;2.97;1.45;;;;;;;19.44;47.48;97260.94;10183841;29;20419;-82
2022/06/02 20:05:27;;;;;;;4.65;1.52;;;;;;;19.44;47.66;97266.34;10178065;29;20076;-82
2022/06/02 20:10:53;;;;;;;4.55;1.65;;;;;;;19.44;47.74;97265.53;10155492;29;20074;-82
2022/06/02 20:16:33;;;;;;;3.80;1.33;;;;;;;19.44;47.65;97268.25;10174959;29;20079;-82
2022/06/02 20:22:10;;;;;;;6.82;1.45;;;;;;;19.45;47.74;97284.16;10192048;29;20052;-82
2022/06/02 20:27:36;;;;;;;4.20;1.48;;;;;;;19.44;47.59;97287.16;10194776;29;20063;-82
2022/06/02 20:33:05;;;;;;;4.40;1.52;;;;;;;19.44;47.89;97290.66;10180206;29;20527;-82
2022/06/02 20:38:47;;;;;;;3.58;1.60;;;;;;;19.48;48.20;97288.94;10178748;29;20132;-82
2022/06/02 20:44:31;;;;;;;4.22;1.80;;;;;;;19.50;48.31;97294.00;10157798;29;20060;-83
2022/06/02 20:50:06;;;;;;;2.47;1.40;;;;;;;19.51;48.35;97293.72;10161293;29;20052;-82
2022/06/02 20:55:32;;;;;;;1.75;1.20;;;;;;;19.52;48.34;97298.03;10168514;29;20064;-82
2022/06/02 21:00:57;;;;;;;2.33;1.55;;;;;;;19.52;48.34;97295.31;10162629;29;20044;-83
2022/06/02 21:06:26;;;;;;;2.50;1.38;;;;;;;19.52;48.56;97300.72;10163964;29;20508;-83
2022/06/02 21:12:06;;;;;;;2.88;1.35;;;;;;;19.52;48.72;97306.13;10173182;29;20158;-83
2022/06/02 21:17:35;;;;;;;2.25;1.30;;;;;;;19.54;48.64;97308.50;10163882;29;20063;-83
2022/06/02 21:22:57;;;;;;;2.50;1.33;;;;;;;19.53;48.84;97313.13;10185152;29;20504;-83
2022/06/02 21:28:19;;;;;;;3.65;1.40;;;;;;;19.53;48.76;97318.50;10185602;29;20051;-83
2022/06/02 21:33:39;;;;;;;2.55;1.13;;;;;;;19.52;48.90;97330.44;10196517;29;20048;-83
2022/06/02 21:39:04;;;;;;;2.88;1.15;;;;;;;19.53;48.95;97326.63;10177399;29;20104;-83
2022/06/02 21:45:02;;;;;;;2.00;1.10;;;;;;;19.53;49.31;97334.72;10164459;29;20059;-83
2022/06/02 21:50:40;;;;;;;3.70;1.40;;;;;;;19.54;49.19;97336.34;10160155;29;20488;-83
2022/06/02 21:56:26;;;;;;;2.05;1.25;;;;;;;19.53;49.13;97340.13;10202195;29;20056;-83
2022/06/02 22:01:45;;;;;;;2.03;1.20;;;;;;;19.51;49.14;97336.16;10173530;29;20052;-83
2022/06/02 22:07:10;;;;;;;2.80;1.20;;;;;;;19.49;49.03;97336.47;10195291;29;20055;-83
2022/06/02 22:12:53;;;;;;;2.20;1.13;;;;;;;19.47;49.11;97325.16;10197849;29;20104;-83
2022/06/02 22:18:16;;;;;;;2.35;1.30;;;;;;;19.48;49.12;97337.59;10184836;29;20551;-83
2022/06/02 22:23:56;;;;;;;1.48;1.15;;;;;;;19.48;49.26;97332.19;10187280;29;20074;-83
2022/06/02 22:29:44;;;;;;;1.92;1.10;;;;;;;19.46;49.17;97331.66;10144399;29;20064;-82
2022/06/02 22:35:59;;;;;;;1.27;0.93;;;;;;;19.45;49.30;97316.56;10177106;29;20059;-83
2022/06/02 22:41:37;;;;;;;1.25;1.15;;;;;;;19.46;49.26;97315.47;10151757;29;20068;-83
2022/06/02 22:47:04;;;;;;;1.45;1.00;;;;;;;19.45;49.28;97321.97;10188382;29;20467;-83
2022/06/02 22:52:35;;;;;;;2.35;0.95;;;;;;;19.45;49.18;97316.56;10191175;29;20052;-82
2022/06/02 22:58:01;;;;;;;2.42;1.00;;;;;;;19.46;49.29;97320.06;10173371;29;20052;-82
2022/06/02 23:03:50;;;;;;;1.63;1.08;;;;;;;19.46;49.32;97331.66;10172224;29;20463;-82
2022/06/02 23:09:18;;;;;;;;;;;;;;;19.45;49.54;97337.41;10155478;29;20543;-83
2022/06/02 23:14:56;;;;;;;1.40;1.10;;;;;;;19.44;49.54;97327.69;10183591;29;19922;-82
2022/06/02 23:20:28;;;;;;;1.37;0.93;;;;;;;19.44;49.47;97331.19;10177717;29;20064;-83
2022/06/02 23:26:09;;;;;;;1.48;0.90;;;;;;;19.43;49.41;97324.19;10161890;29;20050;-82
2022/06/02 23:31:29;;;;;;;1.63;1.05;;;;;;;19.44;49.53;97325.00;10171239;29;20115;-83
2022/06/02 23:37:24;;;;;;;2.03;1.17;;;;;;;19.43;49.39;97324.19;10176426;29;20393;-83
2022/06/02 23:49:10;;;;;;;1.10;1.00;;;;;;;19.43;49.56;97315.31;10156478;29;20058;-82
2022/06/02 23:54:45;;;;;;;1.35;0.98;;;;;;;19.43;49.65;97313.38;10177681;29;20048;-82
